sensor_id;sensor_type;location;lat;lon;timestamp;temperature;humidity
44775;DHT22;31340;51.402;0.016;2022-11-20T00:01:35;7.70;99.90
44775;DHT22;31340;51.402;0.016;2022-11-20T00:04:03;7.70;99.90
44775;DHT22;31340;51.402;0.016;2022-11-20T00:06:31;7.70;99.90
44775;DHT22;31340;51.402;0.016;2022-11-20T00:09:01;7.70;99.90
44775;DHT22;31340;51.402;0.016;2022-11-20T00:11:32;7.70;99.90
44775;DHT22;31340;51.402;0.016;2022-11-20T00:14:03;7.70;99.90
44775;DHT22;31340;51.402;0.016;2022-11-20T00:16:38;7.70;99.90
44775;DHT22;31340;51.402;0.016;2022-11-20T00:19:12;7.70;99.90
44775;DHT22;31340;51.402;0.016;2022-11-20T00:21:39;7.70;99.90
44775;DHT22;31340;51.402;0.016;2022-11-20T00:24:10;7.60;99.90
44775;DHT22;31340;51.402;0.016;2022-11-20T00:26:38;7.60;99.90
44775;DHT22;31340;51.402;0.016;2022-11-20T00:29:09;7.60;99.90
44775;DHT22;31340;51.402;0.016;2022-11-20T00:31:37;7.60;99.90
44775;DHT22;31340;51.402;0.016;2022-11-20T00:34:09;8.20;99.90
44775;DHT22;31340;51.402;0.016;2022-11-20T00:36:46;7.70;99.90
44775;DHT22;31340;51.402;0.016;2022-11-20T00:39:14;7.60;99.90
44775;DHT22;31340;51.402;0.016;2022-11-20T00:41:42;7.60;99.90
44775;DHT22;31340;51.402;0.016;2022-11-20T00:44:32;7.70;99.90
44775;DHT22;31340;51.402;0.016;2022-11-20T00:47:03;7.60;99.90
44775;DHT22;31340;51.402;0.016;2022-11-20T00:49:31;7.60;99.90
44775;DHT22;31340;51.402;0.016;2022-11-20T00:51:59;8.20;99.90
44775;DHT22;31340;51.402;0.016;2022-11-20T00:54:27;7.60;99.90
44775;DHT22;31340;51.402;0.016;2022-11-20T00:57:03;7.70;99.90
44775;DHT22;31340;51.402;0.016;2022-11-20T00:59:31;7.70;99.90
44775;DHT22;31340;51.402;0.016;2022-11-20T01:01:59;7.70;99.90
44775;DHT22;31340;51.402;0.016;2022-11-20T01:04:26;7.70;99.90
44775;DHT22;31340;51.402;0.016;2022-11-20T01:06:54;7.70;99.90
44775;DHT22;31340;51.402;0.016;2022-11-20T01:09:24;7.80;99.90
44775;DHT22;31340;51.402;0.016;2022-11-20T01:11:54;7.70;99.90
44775;DHT22;31340;51.402;0.016;2022-11-20T01:14:23;7.80;99.90
44775;DHT22;31340;51.402;0.016;2022-11-20T01:16:51;7.80;99.90
44775;DHT22;31340;51.402;0.016;2022-11-20T01:19:23;7.80;99.90
44775;DHT22;31340;51.402;0.016;2022-11-20T01:21:53;7.80;99.90
44775;DHT22;31340;51.402;0.016;2022-11-20T01:24:25;7.80;99.90
44775;DHT22;31340;51.402;0.016;2022-11-20T01:26:52;7.80;99.90
44775;DHT22;31340;51.402;0.016;2022-11-20T01:29:23;7.80;99.90
44775;DHT22;31340;51.402;0.016;2022-11-20T01:31:52;7.80;99.90
44775;DHT22;31340;51.402;0.016;2022-11-20T01:34:21;7.80;99.90
44775;DHT22;31340;51.402;0.016;2022-11-20T01:36:50;8.00;99.90
44775;DHT22;31340;51.402;0.016;2022-11-20T01:39:26;7.90;99.90
44775;DHT22;31340;51.402;0.016;2022-11-20T01:42:07;7.90;99.90
44775;DHT22;31340;51.402;0.016;2022-11-20T01:44:59;8.00;99.90
44775;DHT22;31340;51.402;0.016;2022-11-20T01:47:38;7.90;99.90
44775;DHT22;31340;51.402;0.016;2022-11-20T01:50:23;7.90;99.90
44775;DHT22;31340;51.402;0.016;2022-11-20T01:52:55;7.90;99.90
44775;DHT22;31340;51.402;0.016;2022-11-20T01:55:27;7.90;99.90
44775;DHT22;31340;51.402;0.016;2022-11-20T01:57:56;7.90;99.90
44775;DHT22;31340;51.402;0.016;2022-11-20T02:00:24;7.90;99.90
44775;DHT22;31340;51.402;0.016;2022-11-20T02:02:58;8.00;99.90
44775;DHT22;31340;51.402;0.016;2022-11-20T02:08:26;8.00;99.90
44775;DHT22;31340;51.402;0.016;2022-11-20T02:10:55;8.00;99.90
44775;DHT22;31340;51.402;0.016;2022-11-20T02:13:23;8.00;99.90
44775;DHT22;31340;51.402;0.016;2022-11-20T02:16:47;8.00;99.90
44775;DHT22;31340;51.402;0.016;2022-11-20T02:19:28;8.10;99.90
44775;DHT22;31340;51.402;0.016;2022-11-20T02:23:12;8.10;99.90
44775;DHT22;31340;51.402;0.016;2022-11-20T02:25:11;8.10;99.90
44775;DHT22;31340;51.402;0.016;2022-11-20T02:27:39;8.10;99.90
44775;DHT22;31340;51.402;0.016;2022-11-20T02:30:08;8.10;99.90
44775;DHT22;31340;51.402;0.016;2022-11-20T02:32:36;8.10;99.90
44775;DHT22;31340;51.402;0.016;2022-11-20T02:35:50;8.20;99.90
44775;DHT22;31340;51.402;0.016;2022-11-20T02:38:01;8.20;99.90
44775;DHT22;31340;51.402;0.016;2022-11-20T02:40:29;8.20;99.90
44775;DHT22;31340;51.402;0.016;2022-11-20T02:42:57;8.20;99.90
44775;DHT22;31340;51.402;0.016;2022-11-20T02:45:25;8.20;99.90
44775;DHT22;31340;51.402;0.016;2022-11-20T02:47:53;8.20;99.90
44775;DHT22;31340;51.402;0.016;2022-11-20T02:50:21;8.20;99.90
44775;DHT22;31340;51.402;0.016;2022-11-20T02:52:49;8.30;99.90
44775;DHT22;31340;51.402;0.016;2022-11-20T02:55:17;8.30;99.90
44775;DHT22;31340;51.402;0.016;2022-11-20T02:57:44;8.30;99.90
44775;DHT22;31340;51.402;0.016;2022-11-20T03:00:12;8.30;99.90
44775;DHT22;31340;51.402;0.016;2022-11-20T03:02:40;8.30;99.90
44775;DHT22;31340;51.402;0.016;2022-11-20T03:05:08;8.40;99.90
44775;DHT22;31340;51.402;0.016;2022-11-20T03:07:36;8.40;99.90
44775;DHT22;31340;51.402;0.016;2022-11-20T03:10:04;8.40;99.90
44775;DHT22;31340;51.402;0.016;2022-11-20T03:12:32;8.40;99.90
44775;DHT22;31340;51.402;0.016;2022-11-20T03:15:00;8.40;99.90
44775;DHT22;31340;51.402;0.016;2022-11-20T03:17:28;8.50;99.90
44775;DHT22;31340;51.402;0.016;2022-11-20T03:19:57;8.40;99.90
44775;DHT22;31340;51.402;0.016;2022-11-20T03:22:24;8.50;99.90
44775;DHT22;31340;51.402;0.016;2022-11-20T03:24:52;8.50;99.90
44775;DHT22;31340;51.402;0.016;2022-11-20T03:27:20;8.50;99.90
44775;DHT22;31340;51.402;0.016;2022-11-20T03:29:48;8.50;99.90
44775;DHT22;31340;51.402;0.016;2022-11-20T03:32:16;8.50;99.90
44775;DHT22;31340;51.402;0.016;2022-11-20T03:34:43;8.50;99.90
44775;DHT22;31340;51.402;0.016;2022-11-20T03:37:11;8.50;99.90
44775;DHT22;31340;51.402;0.016;2022-11-20T03:39:38;8.60;99.90
44775;DHT22;31340;51.402;0.016;2022-11-20T03:42:06;8.60;99.90
44775;DHT22;31340;51.402;0.016;2022-11-20T03:44:54;8.60;99.90
44775;DHT22;31340;51.402;0.016;2022-11-20T03:47:21;8.60;99.90
44775;DHT22;31340;51.402;0.016;2022-11-20T03:49:49;8.60;99.90
44775;DHT22;31340;51.402;0.016;2022-11-20T03:52:17;8.60;99.90
44775;DHT22;31340;51.402;0.016;2022-11-20T03:54:45;8.60;99.90
44775;DHT22;31340;51.402;0.016;2022-11-20T03:57:12;8.60;99.90
44775;DHT22;31340;51.402;0.016;2022-11-20T03:59:40;8.70;99.90
44775;DHT22;31340;51.402;0.016;2022-11-20T04:02:08;8.70;99.90
44775;DHT22;31340;51.402;0.016;2022-11-20T04:04:36;8.70;99.90
44775;DHT22;31340;51.402;0.016;2022-11-20T04:07:03;8.70;99.90
44775;DHT22;31340;51.402;0.016;2022-11-20T04:09:31;8.70;99.90
44775;DHT22;31340;51.402;0.016;2022-11-20T04:11:59;8.70;99.90
44775;DHT22;31340;51.402;0.016;2022-11-20T04:14:27;8.70;99.90
44775;DHT22;31340;51.402;0.016;2022-11-20T04:16:55;8.70;99.90
44775;DHT22;31340;51.402;0.016;2022-11-20T04:19:22;8.70;99.90
44775;DHT22;31340;51.402;0.016;2022-11-20T04:21:50;8.70;99.90
44775;DHT22;31340;51.402;0.016;2022-11-20T04:24:18;8.70;99.90
44775;DHT22;31340;51.402;0.016;2022-11-20T04:26:46;8.80;99.90
44775;DHT22;31340;51.402;0.016;2022-11-20T04:29:17;8.80;99.90
44775;DHT22;31340;51.402;0.016;2022-11-20T04:31:44;8.80;99.90
44775;DHT22;31340;51.402;0.016;2022-11-20T04:34:12;8.80;99.90
44775;DHT22;31340;51.402;0.016;2022-11-20T04:36:40;8.80;99.90
44775;DHT22;31340;51.402;0.016;2022-11-20T04:39:12;8.80;99.90
44775;DHT22;31340;51.402;0.016;2022-11-20T04:41:42;8.90;99.90
44775;DHT22;31340;51.402;0.016;2022-11-20T04:44:10;8.90;99.90
44775;DHT22;31340;51.402;0.016;2022-11-20T04:46:40;8.90;99.90
44775;DHT22;31340;51.402;0.016;2022-11-20T04:49:08;8.90;99.90
44775;DHT22;31340;51.402;0.016;2022-11-20T04:51:37;8.90;99.90
44775;DHT22;31340;51.402;0.016;2022-11-20T04:54:05;8.90;99.90
44775;DHT22;31340;51.402;0.016;2022-11-20T04:56:33;8.90;99.90
44775;DHT22;31340;51.402;0.016;2022-11-20T04:59:01;8.90;99.90
44775;DHT22;31340;51.402;0.016;2022-11-20T05:01:30;8.90;99.90
44775;DHT22;31340;51.402;0.016;2022-11-20T05:03:57;9.00;99.90
44775;DHT22;31340;51.402;0.016;2022-11-20T05:06:25;9.00;99.90
44775;DHT22;31340;51.402;0.016;2022-11-20T05:08:52;9.00;99.90
44775;DHT22;31340;51.402;0.016;2022-11-20T05:11:21;9.00;99.90
44775;DHT22;31340;51.402;0.016;2022-11-20T05:13:50;9.00;99.90
44775;DHT22;31340;51.402;0.016;2022-11-20T05:16:23;9.00;99.90
44775;DHT22;31340;51.402;0.016;2022-11-20T05:18:52;9.00;99.90
44775;DHT22;31340;51.402;0.016;2022-11-20T05:21:22;9.00;99.90
44775;DHT22;31340;51.402;0.016;2022-11-20T05:23:50;9.00;99.90
44775;DHT22;31340;51.402;0.016;2022-11-20T05:26:20;9.10;99.90
44775;DHT22;31340;51.402;0.016;2022-11-20T05:28:48;9.10;99.90
44775;DHT22;31340;51.402;0.016;2022-11-20T05:31:19;9.10;99.90
44775;DHT22;31340;51.402;0.016;2022-11-20T05:33:53;9.00;99.90
44775;DHT22;31340;51.402;0.016;2022-11-20T05:36:21;9.00;99.90
44775;DHT22;31340;51.402;0.016;2022-11-20T05:38:48;9.10;99.90
44775;DHT22;31340;51.402;0.016;2022-11-20T05:41:19;9.10;99.90
44775;DHT22;31340;51.402;0.016;2022-11-20T05:43:49;9.10;99.90
44775;DHT22;31340;51.402;0.016;2022-11-20T05:46:19;9.10;99.90
44775;DHT22;31340;51.402;0.016;2022-11-20T05:48:55;9.10;99.90
44775;DHT22;31340;51.402;0.016;2022-11-20T05:51:24;9.10;99.90
44775;DHT22;31340;51.402;0.016;2022-11-20T05:53:52;9.10;99.90
44775;DHT22;31340;51.402;0.016;2022-11-20T05:56:21;9.10;99.90
44775;DHT22;31340;51.402;0.016;2022-11-20T05:58:49;9.10;99.90
44775;DHT22;31340;51.402;0.016;2022-11-20T06:01:21;9.10;99.90
44775;DHT22;31340;51.402;0.016;2022-11-20T06:03:50;9.10;99.90
44775;DHT22;31340;51.402;0.016;2022-11-20T06:06:20;9.10;99.90
44775;DHT22;31340;51.402;0.016;2022-11-20T06:08:49;9.20;99.90
44775;DHT22;31340;51.402;0.016;2022-11-20T06:11:18;9.20;99.90
44775;DHT22;31340;51.402;0.016;2022-11-20T06:13:46;9.20;99.90
44775;DHT22;31340;51.402;0.016;2022-11-20T06:16:16;9.20;99.90
44775;DHT22;31340;51.402;0.016;2022-11-20T06:18:45;9.20;99.90
44775;DHT22;31340;51.402;0.016;2022-11-20T06:21:17;9.20;99.90
44775;DHT22;31340;51.402;0.016;2022-11-20T06:23:48;9.30;99.90
44775;DHT22;31340;51.402;0.016;2022-11-20T06:26:19;9.30;99.90
44775;DHT22;31340;51.402;0.016;2022-11-20T06:28:47;9.30;99.90
44775;DHT22;31340;51.402;0.016;2022-11-20T06:31:18;9.30;99.90
44775;DHT22;31340;51.402;0.016;2022-11-20T06:33:47;9.30;99.90
44775;DHT22;31340;51.402;0.016;2022-11-20T06:36:16;9.30;99.90
44775;DHT22;31340;51.402;0.016;2022-11-20T06:38:44;9.30;99.90
44775;DHT22;31340;51.402;0.016;2022-11-20T06:41:18;9.40;99.90
44775;DHT22;31340;51.402;0.016;2022-11-20T06:43:46;9.40;99.90
44775;DHT22;31340;51.402;0.016;2022-11-20T06:46:17;9.40;99.90
44775;DHT22;31340;51.402;0.016;2022-11-20T06:48:49;9.40;99.90
44775;DHT22;31340;51.402;0.016;2022-11-20T06:51:18;9.40;99.90
44775;DHT22;31340;51.402;0.016;2022-11-20T06:53:46;9.50;99.90
44775;DHT22;31340;51.402;0.016;2022-11-20T06:56:14;9.40;99.90
44775;DHT22;31340;51.402;0.016;2022-11-20T06:58:41;9.50;99.90
44775;DHT22;31340;51.402;0.016;2022-11-20T07:01:11;9.50;99.90
44775;DHT22;31340;51.402;0.016;2022-11-20T07:03:39;9.50;99.90
44775;DHT22;31340;51.402;0.016;2022-11-20T07:06:08;9.50;99.90
44775;DHT22;31340;51.402;0.016;2022-11-20T07:08:36;9.60;99.90
44775;DHT22;31340;51.402;0.016;2022-11-20T07:11:13;9.60;99.90
44775;DHT22;31340;51.402;0.016;2022-11-20T07:13:41;9.60;99.90
44775;DHT22;31340;51.402;0.016;2022-11-20T07:16:09;9.60;99.90
44775;DHT22;31340;51.402;0.016;2022-11-20T07:18:37;9.60;99.90
44775;DHT22;31340;51.402;0.016;2022-11-20T07:21:09;9.70;99.90
44775;DHT22;31340;51.402;0.016;2022-11-20T07:23:37;9.70;99.90
44775;DHT22;31340;51.402;0.016;2022-11-20T07:26:09;9.70;99.90
44775;DHT22;31340;51.402;0.016;2022-11-20T07:28:37;9.80;99.90
44775;DHT22;31340;51.402;0.016;2022-11-20T07:31:06;9.80;99.90
44775;DHT22;31340;51.402;0.016;2022-11-20T07:33:34;9.80;99.90
44775;DHT22;31340;51.402;0.016;2022-11-20T07:36:02;9.80;99.90
44775;DHT22;31340;51.402;0.016;2022-11-20T07:38:30;9.90;99.90
44775;DHT22;31340;51.402;0.016;2022-11-20T07:40:58;9.90;99.90
44775;DHT22;31340;51.402;0.016;2022-11-20T07:43:25;9.90;99.90
44775;DHT22;31340;51.402;0.016;2022-11-20T07:45:57;10.00;99.90
44775;DHT22;31340;51.402;0.016;2022-11-20T07:48:25;10.00;99.90
44775;DHT22;31340;51.402;0.016;2022-11-20T07:50:54;10.10;99.90
44775;DHT22;31340;51.402;0.016;2022-11-20T07:53:22;10.10;99.90
44775;DHT22;31340;51.402;0.016;2022-11-20T07:55:50;10.10;99.90
44775;DHT22;31340;51.402;0.016;2022-11-20T07:58:22;10.10;99.90
44775;DHT22;31340;51.402;0.016;2022-11-20T08:00:49;10.20;99.90
44775;DHT22;31340;51.402;0.016;2022-11-20T08:03:17;10.20;99.90
44775;DHT22;31340;51.402;0.016;2022-11-20T08:05:51;10.20;99.90
44775;DHT22;31340;51.402;0.016;2022-11-20T08:08:22;10.30;99.90
44775;DHT22;31340;51.402;0.016;2022-11-20T08:10:50;10.30;99.90
44775;DHT22;31340;51.402;0.016;2022-11-20T08:13:17;10.30;99.90
44775;DHT22;31340;51.402;0.016;2022-11-20T08:16:04;10.30;99.90
44775;DHT22;31340;51.402;0.016;2022-11-20T08:18:32;10.40;99.90
44775;DHT22;31340;51.402;0.016;2022-11-20T08:21:04;10.40;99.90
44775;DHT22;31340;51.402;0.016;2022-11-20T08:23:32;10.40;99.90
44775;DHT22;31340;51.402;0.016;2022-11-20T08:25:59;10.40;99.90
44775;DHT22;31340;51.402;0.016;2022-11-20T08:28:27;10.40;99.90
44775;DHT22;31340;51.402;0.016;2022-11-20T08:30:59;10.40;99.90
44775;DHT22;31340;51.402;0.016;2022-11-20T08:33:28;10.50;99.90
44775;DHT22;31340;51.402;0.016;2022-11-20T08:36:01;10.50;99.90
44775;DHT22;31340;51.402;0.016;2022-11-20T08:38:29;10.50;99.90
44775;DHT22;31340;51.402;0.016;2022-11-20T08:41:00;10.50;99.90
44775;DHT22;31340;51.402;0.016;2022-11-20T08:43:46;10.50;99.90
44775;DHT22;31340;51.402;0.016;2022-11-20T08:46:14;10.50;99.90
44775;DHT22;31340;51.402;0.016;2022-11-20T08:48:42;10.50;99.90
44775;DHT22;31340;51.402;0.016;2022-11-20T08:51:11;10.50;99.90
44775;DHT22;31340;51.402;0.016;2022-11-20T08:53:40;10.50;99.90
44775;DHT22;31340;51.402;0.016;2022-11-20T08:56:08;10.50;99.90
44775;DHT22;31340;51.402;0.016;2022-11-20T08:58:38;10.50;99.90
44775;DHT22;31340;51.402;0.016;2022-11-20T09:01:26;10.50;99.90
44775;DHT22;31340;51.402;0.016;2022-11-20T09:03:57;10.50;99.90
44775;DHT22;31340;51.402;0.016;2022-11-20T09:06:26;10.50;99.90
44775;DHT22;31340;51.402;0.016;2022-11-20T09:08:56;10.60;99.90
44775;DHT22;31340;51.402;0.016;2022-11-20T09:11:35;10.60;99.90
44775;DHT22;31340;51.402;0.016;2022-11-20T09:14:03;10.50;99.90
44775;DHT22;31340;51.402;0.016;2022-11-20T09:16:32;10.50;99.90
44775;DHT22;31340;51.402;0.016;2022-11-20T09:18:59;10.60;99.90
44775;DHT22;31340;51.402;0.016;2022-11-20T09:21:47;10.60;99.90
44775;DHT22;31340;51.402;0.016;2022-11-20T09:24:14;10.50;99.90
44775;DHT22;31340;51.402;0.016;2022-11-20T09:26:42;10.60;99.90
44775;DHT22;31340;51.402;0.016;2022-11-20T09:29:10;10.60;99.90
44775;DHT22;31340;51.402;0.016;2022-11-20T09:31:38;10.60;99.90
44775;DHT22;31340;51.402;0.016;2022-11-20T09:34:06;10.70;99.90
44775;DHT22;31340;51.402;0.016;2022-11-20T09:36:34;10.70;99.90
44775;DHT22;31340;51.402;0.016;2022-11-20T09:39:02;10.70;99.90
44775;DHT22;31340;51.402;0.016;2022-11-20T09:46:55;10.70;99.90
44775;DHT22;31340;51.402;0.016;2022-11-20T09:52:49;10.70;99.90
44775;DHT22;31340;51.402;0.016;2022-11-20T09:55:23;10.80;99.90
44775;DHT22;31340;51.402;0.016;2022-11-20T09:57:52;10.80;99.90
44775;DHT22;31340;51.402;0.016;2022-11-20T10:00:19;10.80;99.90
44775;DHT22;31340;51.402;0.016;2022-11-20T10:03:11;10.80;99.90
44775;DHT22;31340;51.402;0.016;2022-11-20T10:05:50;10.90;99.90
44775;DHT22;31340;51.402;0.016;2022-11-20T10:08:54;10.90;99.90
44775;DHT22;31340;51.402;0.016;2022-11-20T10:19:39;10.90;99.90
44775;DHT22;31340;51.402;0.016;2022-11-20T10:25:41;11.00;99.90
44775;DHT22;31340;51.402;0.016;2022-11-20T10:28:26;11.00;99.90
44775;DHT22;31340;51.402;0.016;2022-11-20T10:31:01;11.00;99.90
44775;DHT22;31340;51.402;0.016;2022-11-20T10:33:33;11.10;99.90
44775;DHT22;31340;51.402;0.016;2022-11-20T10:36:32;11.10;99.90
44775;DHT22;31340;51.402;0.016;2022-11-20T10:41:58;11.30;99.90
44775;DHT22;31340;51.402;0.016;2022-11-20T10:44:28;11.30;99.90
44775;DHT22;31340;51.402;0.016;2022-11-20T10:47:24;11.40;99.90
44775;DHT22;31340;51.402;0.016;2022-11-20T10:49:54;11.50;99.90
44775;DHT22;31340;51.402;0.016;2022-11-20T10:55:33;11.60;99.90
44775;DHT22;31340;51.402;0.016;2022-11-20T10:58:10;11.70;99.90
44775;DHT22;31340;51.402;0.016;2022-11-20T11:00:41;11.80;99.90
44775;DHT22;31340;51.402;0.016;2022-11-20T11:05:56;11.90;99.90
44775;DHT22;31340;51.402;0.016;2022-11-20T11:08:28;12.00;99.90
44775;DHT22;31340;51.402;0.016;2022-11-20T11:11:07;12.10;99.90
44775;DHT22;31340;51.402;0.016;2022-11-20T11:13:40;12.20;99.90
44775;DHT22;31340;51.402;0.016;2022-11-20T11:16:23;12.30;99.90
44775;DHT22;31340;51.402;0.016;2022-11-20T11:19:02;12.40;99.90
44775;DHT22;31340;51.402;0.016;2022-11-20T11:21:30;12.50;99.90
44775;DHT22;31340;51.402;0.016;2022-11-20T11:24:03;12.60;99.90
44775;DHT22;31340;51.402;0.016;2022-11-20T11:27:02;12.80;99.90
44775;DHT22;31340;51.402;0.016;2022-11-20T11:29:38;12.90;99.90
44775;DHT22;31340;51.402;0.016;2022-11-20T11:34:41;13.10;99.90
44775;DHT22;31340;51.402;0.016;2022-11-20T11:37:19;13.20;99.90
44775;DHT22;31340;51.402;0.016;2022-11-20T11:39:49;13.30;99.90
44775;DHT22;31340;51.402;0.016;2022-11-20T11:42:43;13.40;99.90
44775;DHT22;31340;51.402;0.016;2022-11-20T11:45:14;13.60;99.90
44775;DHT22;31340;51.402;0.016;2022-11-20T11:47:47;13.70;99.90
44775;DHT22;31340;51.402;0.016;2022-11-20T11:50:27;13.90;99.90
44775;DHT22;31340;51.402;0.016;2022-11-20T11:55:33;14.20;99.90
44775;DHT22;31340;51.402;0.016;2022-11-20T11:58:31;14.40;99.90
44775;DHT22;31340;51.402;0.016;2022-11-20T12:06:34;14.90;99.90
44775;DHT22;31340;51.402;0.016;2022-11-20T12:09:07;15.00;99.70
44775;DHT22;31340;51.402;0.016;2022-11-20T12:11:45;15.20;99.60
44775;DHT22;31340;51.402;0.016;2022-11-20T12:14:39;15.40;99.20
44775;DHT22;31340;51.402;0.016;2022-11-20T12:17:13;15.50;98.50
44775;DHT22;31340;51.402;0.016;2022-11-20T12:19:42;15.80;98.30
44775;DHT22;31340;51.402;0.016;2022-11-20T12:25:32;16.10;97.50
44775;DHT22;31340;51.402;0.016;2022-11-20T12:28:38;16.10;96.80
44775;DHT22;31340;51.402;0.016;2022-11-20T12:36:20;16.50;95.40
44775;DHT22;31340;51.402;0.016;2022-11-20T12:59:23;17.60;92.20
44775;DHT22;31340;51.402;0.016;2022-11-20T13:02:21;17.70;90.60
44775;DHT22;31340;51.402;0.016;2022-11-20T13:07:36;17.70;90.50
44775;DHT22;31340;51.402;0.016;2022-11-20T13:10:16;17.80;90.30
44775;DHT22;31340;51.402;0.016;2022-11-20T13:12:49;17.80;87.80
44775;DHT22;31340;51.402;0.016;2022-11-20T13:15:40;17.80;88.60
44775;DHT22;31340;51.402;0.016;2022-11-20T13:18:13;17.90;87.60
44775;DHT22;31340;51.402;0.016;2022-11-20T13:20:45;17.90;87.80
44775;DHT22;31340;51.402;0.016;2022-11-20T13:23:24;18.00;86.60
44775;DHT22;31340;51.402;0.016;2022-11-20T13:26:17;18.00;84.30
44775;DHT22;31340;51.402;0.016;2022-11-20T13:28:45;18.00;83.00
44775;DHT22;31340;51.402;0.016;2022-11-20T13:31:29;17.90;83.30
44775;DHT22;31340;51.402;0.016;2022-11-20T13:34:00;17.90;83.60
44775;DHT22;31340;51.402;0.016;2022-11-20T13:36:29;17.90;82.90
44775;DHT22;31340;51.402;0.016;2022-11-20T13:38:59;17.90;83.10
44775;DHT22;31340;51.402;0.016;2022-11-20T13:41:33;17.90;81.90
44775;DHT22;31340;51.402;0.016;2022-11-20T13:44:29;17.80;81.00
44775;DHT22;31340;51.402;0.016;2022-11-20T13:46:57;17.70;81.00
44775;DHT22;31340;51.402;0.016;2022-11-20T13:49:29;17.50;80.80
44775;DHT22;31340;51.402;0.016;2022-11-20T13:52:20;17.30;81.60
44775;DHT22;31340;51.402;0.016;2022-11-20T14:00:31;17.20;81.10
44775;DHT22;31340;51.402;0.016;2022-11-20T14:03:07;17.00;81.80
44775;DHT22;31340;51.402;0.016;2022-11-20T14:05:40;16.80;82.50
44775;DHT22;31340;51.402;0.016;2022-11-20T14:08:14;16.70;82.30
44775;DHT22;31340;51.402;0.016;2022-11-20T14:10:45;16.60;81.70
44775;DHT22;31340;51.402;0.016;2022-11-20T14:13:21;16.30;82.20
44775;DHT22;31340;51.402;0.016;2022-11-20T14:15:56;16.20;82.40
44775;DHT22;31340;51.402;0.016;2022-11-20T14:18:26;16.00;82.70
44775;DHT22;31340;51.402;0.016;2022-11-20T14:20:55;15.80;83.20
44775;DHT22;31340;51.402;0.016;2022-11-20T14:23:27;15.60;83.90
44775;DHT22;31340;51.402;0.016;2022-11-20T14:25:57;15.50;84.50
44775;DHT22;31340;51.402;0.016;2022-11-20T14:28:29;15.30;85.00
44775;DHT22;31340;51.402;0.016;2022-11-20T14:31:00;15.20;85.20
44775;DHT22;31340;51.402;0.016;2022-11-20T14:33:32;15.00;85.70
44775;DHT22;31340;51.402;0.016;2022-11-20T14:36:01;15.00;86.20
44775;DHT22;31340;51.402;0.016;2022-11-20T14:38:29;14.80;86.50
44775;DHT22;31340;51.402;0.016;2022-11-20T14:41:16;14.70;87.20
44775;DHT22;31340;51.402;0.016;2022-11-20T14:43:56;14.60;87.70
44775;DHT22;31340;51.402;0.016;2022-11-20T14:46:25;14.50;87.90
44775;DHT22;31340;51.402;0.016;2022-11-20T14:49:00;14.50;88.40
44775;DHT22;31340;51.402;0.016;2022-11-20T14:51:34;14.40;88.80
44775;DHT22;31340;51.402;0.016;2022-11-20T14:54:19;14.30;89.20
44775;DHT22;31340;51.402;0.016;2022-11-20T14:56:57;14.30;90.30
44775;DHT22;31340;51.402;0.016;2022-11-20T14:59:27;14.20;90.10
44775;DHT22;31340;51.402;0.016;2022-11-20T15:02:08;14.10;90.00
44775;DHT22;31340;51.402;0.016;2022-11-20T15:04:57;14.00;90.20
44775;DHT22;31340;51.402;0.016;2022-11-20T15:07:32;13.90;90.30
44775;DHT22;31340;51.402;0.016;2022-11-20T15:10:05;13.80;90.40
44775;DHT22;31340;51.402;0.016;2022-11-20T15:12:37;13.70;90.60
44775;DHT22;31340;51.402;0.016;2022-11-20T15:15:08;13.60;90.80
44775;DHT22;31340;51.402;0.016;2022-11-20T15:17:40;13.60;91.00
44775;DHT22;31340;51.402;0.016;2022-11-20T15:20:15;13.50;91.50
44775;DHT22;31340;51.402;0.016;2022-11-20T15:22:44;13.50;91.80
44775;DHT22;31340;51.402;0.016;2022-11-20T15:25:16;13.40;91.80
44775;DHT22;31340;51.402;0.016;2022-11-20T15:27:45;13.40;92.10
44775;DHT22;31340;51.402;0.016;2022-11-20T15:30:19;13.30;92.30
44775;DHT22;31340;51.402;0.016;2022-11-20T15:32:47;13.20;92.50
44775;DHT22;31340;51.402;0.016;2022-11-20T15:35:15;13.20;92.60
44775;DHT22;31340;51.402;0.016;2022-11-20T15:37:43;13.10;92.80
44775;DHT22;31340;51.402;0.016;2022-11-20T15:40:11;13.00;93.10
44775;DHT22;31340;51.402;0.016;2022-11-20T15:42:39;12.90;93.40
44775;DHT22;31340;51.402;0.016;2022-11-20T15:45:29;12.90;93.70
44775;DHT22;31340;51.402;0.016;2022-11-20T15:47:59;12.90;94.00
44775;DHT22;31340;51.402;0.016;2022-11-20T15:50:33;12.80;94.30
44775;DHT22;31340;51.402;0.016;2022-11-20T15:53:02;12.80;94.40
44775;DHT22;31340;51.402;0.016;2022-11-20T15:55:30;12.70;94.40
44775;DHT22;31340;51.402;0.016;2022-11-20T15:57:57;12.70;94.70
44775;DHT22;31340;51.402;0.016;2022-11-20T16:00:25;12.60;94.70
44775;DHT22;31340;51.402;0.016;2022-11-20T16:02:53;12.60;94.80
44775;DHT22;31340;51.402;0.016;2022-11-20T16:05:23;12.60;95.00
44775;DHT22;31340;51.402;0.016;2022-11-20T16:07:50;12.60;95.20
44775;DHT22;31340;51.402;0.016;2022-11-20T16:10:19;12.50;95.60
44775;DHT22;31340;51.402;0.016;2022-11-20T16:12:47;12.50;95.30
44775;DHT22;31340;51.402;0.016;2022-11-20T16:15:33;12.40;95.30
44775;DHT22;31340;51.402;0.016;2022-11-20T16:18:18;12.40;95.40
44775;DHT22;31340;51.402;0.016;2022-11-20T16:20:51;12.30;95.50
44775;DHT22;31340;51.402;0.016;2022-11-20T16:23:20;12.30;95.50
44775;DHT22;31340;51.402;0.016;2022-11-20T16:25:48;12.20;95.50
44775;DHT22;31340;51.402;0.016;2022-11-20T16:28:16;12.10;95.60
44775;DHT22;31340;51.402;0.016;2022-11-20T16:30:46;12.10;95.70
44775;DHT22;31340;51.402;0.016;2022-11-20T16:33:15;12.00;95.80
44775;DHT22;31340;51.402;0.016;2022-11-20T16:35:44;12.00;96.00
44775;DHT22;31340;51.402;0.016;2022-11-20T16:38:11;11.90;96.10
44775;DHT22;31340;51.402;0.016;2022-11-20T16:40:39;11.80;96.30
44775;DHT22;31340;51.402;0.016;2022-11-20T16:43:09;11.80;96.50
44775;DHT22;31340;51.402;0.016;2022-11-20T16:45:43;11.80;96.70
44775;DHT22;31340;51.402;0.016;2022-11-20T16:48:13;11.70;96.80
44775;DHT22;31340;51.402;0.016;2022-11-20T16:50:52;11.70;96.90
44775;DHT22;31340;51.402;0.016;2022-11-20T16:53:21;11.70;97.00
44775;DHT22;31340;51.402;0.016;2022-11-20T16:55:49;11.60;97.10
44775;DHT22;31340;51.402;0.016;2022-11-20T16:58:16;11.60;97.30
44775;DHT22;31340;51.402;0.016;2022-11-20T17:00:44;11.60;97.40
44775;DHT22;31340;51.402;0.016;2022-11-20T17:03:17;11.60;97.50
44775;DHT22;31340;51.402;0.016;2022-11-20T17:05:45;11.50;97.50
44775;DHT22;31340;51.402;0.016;2022-11-20T17:08:13;11.50;97.50
44775;DHT22;31340;51.402;0.016;2022-11-20T17:10:40;11.50;97.60
44775;DHT22;31340;51.402;0.016;2022-11-20T17:13:08;11.50;97.70
44775;DHT22;31340;51.402;0.016;2022-11-20T17:15:36;11.40;97.70
44775;DHT22;31340;51.402;0.016;2022-11-20T17:18:05;11.50;97.90
44775;DHT22;31340;51.402;0.016;2022-11-20T17:20:33;11.40;98.10
44775;DHT22;31340;51.402;0.016;2022-11-20T17:23:00;11.40;98.10
44775;DHT22;31340;51.402;0.016;2022-11-20T17:25:31;11.40;98.20
44775;DHT22;31340;51.402;0.016;2022-11-20T17:28:01;11.40;98.30